Time;durP1;ratioP1;P1;durP2;ratioP2;P2;SDS_P1;SDS_P2;PMS_P1;PMS_P2;Temp;Humidity;BMP_temperature;BMP_pressure;BME280_temperature;BME280_humidity;BME280_pressure;Samples;Min_cycle;Max_cycle;Signal;HPM_P1;HPM_P2
2023/01/08 00:03:15;;;;;;;162.20;89.00;;;;;;;0.11;100.00;99084.16;4035760;87;21509;-87
2023/01/08 00:09:16;;;;;;;174.18;96.20;;;;;;;0.12;100.00;99082.27;4041176;87;21032;-88
2023/01/08 00:15:18;;;;;;;159.27;80.60;;;;;;;0.13;100.00;99064.46;4038341;86;21012;-88
2023/01/08 00:21:19;;;;;;;155.43;81.45;;;;;;;-0.02;100.00;99044.64;4037868;87;21510;-88
2023/01/08 00:27:21;;;;;;;156.97;84.80;;;;;;;0.00;100.00;99054.56;4041941;87;21915;-87
2023/01/08 00:33:23;;;;;;;143.85;79.22;;;;;;;0.00;100.00;99049.18;4038395;87;21608;-89
2023/01/08 00:39:24;;;;;;;147.25;77.10;;;;;;;-0.10;100.00;99047.52;4036291;87;21601;-87
2023/01/08 00:45:26;;;;;;;137.32;74.85;;;;;;;-0.16;100.00;99044.67;4055128;86;21970;-89
2023/01/08 00:51:27;;;;;;;123.55;65.75;;;;;;;-0.28;100.00;99035.53;4071508;86;21607;-87
2023/01/08 00:57:38;;;;;;;117.75;66.72;;;;;;;-0.44;100.00;99034.30;4071656;86;21103;-87
2023/01/08 01:03:39;;;;;;;117.00;64.15;;;;;;;-0.51;100.00;99050.03;4065472;86;21085;-87
2023/01/08 01:09:40;;;;;;;120.45;64.42;;;;;;;-0.56;100.00;99042.06;4069317;86;21102;-88
2023/01/08 01:15:41;;;;;;;133.35;72.25;;;;;;;-0.62;100.00;99039.24;4070798;86;21686;-86
2023/01/08 01:21:43;;;;;;;126.78;68.65;;;;;;;-0.69;100.00;99040.98;4068140;86;21250;-87
2023/01/08 01:27:44;;;;;;;128.55;67.15;;;;;;;-0.78;100.00;99029.36;4073033;86;21068;-87
2023/01/08 01:33:46;;;;;;;133.70;67.58;;;;;;;-0.83;100.00;99026.77;4070000;86;20987;-86
2023/01/08 01:39:47;;;;;;;115.40;59.53;;;;;;;-0.87;100.00;99024.98;4075381;85;21942;-86
2023/01/08 01:45:49;;;;;;;123.05;61.45;;;;;;;-0.97;100.00;99026.54;4048165;86;21111;-86
2023/01/08 01:51:55;;;;;;;120.90;61.70;;;;;;;-1.03;100.00;99011.59;3966233;87;21564;-86
2023/01/08 01:58:16;;;;;;;115.75;60.55;;;;;;;-1.04;100.00;99001.41;3982035;87;21312;-87
2023/01/08 02:04:17;;;;;;;118.10;60.70;;;;;;;-1.11;100.00;98992.94;3981446;87;21094;-86
2023/01/08 02:10:55;;;;;;;108.87;56.70;;;;;;;-1.18;100.00;98992.55;3985199;87;21435;-86
2023/01/08 02:17:06;;;;;;;102.10;53.30;;;;;;;-1.28;100.00;98977.20;3986597;87;21095;-86
2023/01/08 02:23:37;;;;;;;95.80;48.20;;;;;;;-1.31;100.00;98981.79;3985740;87;21044;-86
2023/01/08 02:29:39;;;;;;;101.97;51.87;;;;;;;-1.33;100.00;98971.34;3985134;87;21048;-86
2023/01/08 02:35:46;;;;;;;104.37;52.33;;;;;;;-1.35;100.00;98968.72;3987307;87;21006;-86
2023/01/08 02:42:28;;;;;;;102.57;52.07;;;;;;;-1.41;100.00;98961.32;3992961;87;21062;-86
2023/01/08 02:48:48;;;;;;;90.17;48.00;;;;;;;-1.54;100.00;98958.07;3979922;87;21598;-86
2023/01/08 02:54:50;;;;;;;89.03;43.83;;;;;;;-1.69;100.00;98952.96;3983626;87;21112;-86
2023/01/08 03:00:53;;;;;;;95.97;48.23;;;;;;;-1.71;100.00;98951.91;3987693;87;21103;-86
2023/01/08 03:06:55;;;;;;;98.23;47.77;;;;;;;-1.74;100.00;98955.77;3991051;87;21032;-86
2023/01/08 03:13:03;;;;;;;115.63;57.73;;;;;;;-1.73;100.00;98970.23;3988121;87;21527;-86
2023/01/08 03:19:24;;;;;;;130.13;60.07;;;;;;;-1.74;100.00;98966.50;3990622;87;21060;-86
2023/01/08 03:25:29;;;;;;;118.40;58.93;;;;;;;-1.82;100.00;98957.78;3993560;87;21593;-86
2023/01/08 03:31:33;;;;;;;121.07;58.70;;;;;;;-1.90;100.00;98943.70;3993472;87;22031;-86
2023/01/08 03:37:44;;;;;;;157.50;68.37;;;;;;;-1.90;100.00;98943.16;3992213;87;20996;-86
2023/01/08 03:43:46;;;;;;;141.80;64.10;;;;;;;-1.90;100.00;98940.48;4001222;86;21160;-86
2023/01/08 03:49:50;;;;;;;147.33;66.50;;;;;;;-1.94;100.00;98929.27;4042838;86;21050;-86
2023/01/08 03:55:51;;;;;;;131.83;62.63;;;;;;;-1.93;100.00;98924.97;4039804;85;21073;-86
2023/01/08 04:01:53;;;;;;;128.35;61.60;;;;;;;-1.95;100.00;98920.44;4046555;87;21572;-86
2023/01/08 04:07:56;;;;;;;121.43;59.60;;;;;;;-1.97;100.00;98915.09;4044167;86;21059;-85
2023/01/08 04:13:57;;;;;;;126.30;58.57;;;;;;;-2.00;100.00;98911.67;4048935;87;20972;-86
2023/01/08 04:19:59;;;;;;;106.57;50.47;;;;;;;-2.02;100.00;98902.58;4041761;86;21858;-86
2023/01/08 04:26:06;;;;;;;103.33;48.33;;;;;;;-2.10;100.00;98901.13;4044996;86;21053;-86
2023/01/08 04:32:12;;;;;;;98.13;46.50;;;;;;;-2.12;100.00;98901.43;4036973;87;21087;-87
2023/01/08 04:38:23;;;;;;;;;;;;;;;-2.12;100.00;98901.43;4039828;87;21079;-86
2023/01/08 04:44:29;;;;;;;89.60;43.37;;;;;;;-2.10;100.00;98905.16;4022645;87;20179;-86
2023/01/08 04:50:30;;;;;;;89.77;41.92;;;;;;;-2.07;100.00;98896.52;4007280;87;21049;-86
2023/01/08 04:56:36;;;;;;;85.07;41.70;;;;;;;-2.03;100.00;98896.97;4005827;87;21497;-86
2023/01/08 05:02:49;;;;;;;85.93;42.37;;;;;;;-1.98;100.00;98898.77;3995478;87;21048;-86
2023/01/08 05:08:59;;;;;;;83.27;41.60;;;;;;;-1.99;100.00;98907.91;4008866;87;21183;-86
2023/01/08 05:15:08;;;;;;;73.73;37.13;;;;;;;-2.03;100.00;98898.31;4009132;87;21075;-86
2023/01/08 05:21:12;;;;;;;78.67;39.13;;;;;;;-2.07;100.00;98896.52;4011757;87;21106;-86
2023/01/08 05:27:19;;;;;;;80.50;38.10;;;;;;;-2.02;100.00;98889.73;4006316;87;21075;-86
2023/01/08 05:33:40;;;;;;;78.07;37.53;;;;;;;-2.19;100.00;98881.42;4009231;87;21161;-87
2023/01/08 05:39:56;;;;;;;74.30;37.60;;;;;;;-2.28;100.00;98869.25;4004090;87;21083;-86
2023/01/08 05:46:12;;;;;;;75.20;37.77;;;;;;;-2.30;100.00;98870.08;4006181;86;21145;-87
2023/01/08 05:52:24;;;;;;;74.20;35.93;;;;;;;-2.30;100.00;98859.92;3973881;87;21082;-87
2023/01/08 05:58:26;;;;;;;71.03;34.90;;;;;;;-2.29;100.00;98861.50;3988764;87;21099;-88
2023/01/08 06:31:42;;;;;;;63.63;33.97;;;;;;;-2.50;100.00;98858.90;3966480;87;21071;-88
2023/01/08 06:37:57;;;;;;;61.67;32.13;;;;;;;-2.58;100.00;98857.69;3978163;87;21074;-88
2023/01/08 06:43:59;;;;;;;67.67;32.53;;;;;;;-2.64;100.00;98847.34;3976690;88;21021;-88
2023/01/08 06:50:01;;;;;;;72.47;34.00;;;;;;;-2.71;100.00;98846.94;3978936;86;21058;-88
2023/01/08 06:56:27;;;;;;;62.73;31.87;;;;;;;-2.69;100.00;98853.58;3944004;89;21054;-88
2023/01/08 07:02:28;;;;;;;86.28;38.75;;;;;;;-2.52;100.00;98856.52;3934419;89;21129;-88
2023/01/08 07:08:29;;;;;;;93.60;36.67;;;;;;;-2.40;100.00;98863.57;3938893;88;21073;-89
2023/01/08 07:14:31;;;;;;;92.07;37.70;;;;;;;-2.30;100.00;98850.55;3942365;88;22306;-88
2023/01/08 07:28:34;;;;;;;79.73;35.90;;;;;;;-2.16;100.00;98852.14;3937801;89;21042;-87
2023/01/08 07:34:58;;;;;;;68.03;34.93;;;;;;;-2.02;100.00;98850.27;3947164;89;21066;-89
2023/01/08 07:41:15;;;;;;;70.27;36.83;;;;;;;-1.96;100.00;98826.28;3930623;89;21058;-88
2023/01/08 07:47:16;;;;;;;88.87;42.30;;;;;;;-1.80;100.00;98817.38;3949421;89;21070;-88
2023/01/08 08:06:53;;;;;;;73.77;37.80;;;;;;;-0.87;100.00;98800.05;3983855;88;21212;-89
2023/01/08 08:12:55;;;;;;;71.83;33.47;;;;;;;-0.69;100.00;98803.08;3990958;87;21107;-89
2023/01/08 08:26:53;;;;;;;74.47;39.88;;;;;;;-0.38;100.00;98781.62;3919636;88;21092;-89
2023/01/08 08:32:56;;;;;;;56.40;29.27;;;;;;;-0.09;100.00;98772.48;3937604;88;21080;-89
2023/01/08 08:38:58;;;;;;;58.25;31.20;;;;;;;0.48;100.00;98739.62;3944256;88;21614;-89
2023/01/08 08:45:00;;;;;;;48.68;28.05;;;;;;;0.48;100.00;98739.62;3937677;88;22053;-90
2023/01/08 08:51:02;;;;;;;57.35;32.17;;;;;;;1.02;100.00;98744.38;3996466;87;21491;-90
2023/01/08 08:57:04;;;;;;;37.13;21.30;;;;;;;1.47;100.00;98746.95;3990830;87;21102;-91
2023/01/08 09:03:05;;;;;;;35.13;20.88;;;;;;;1.99;100.00;98740.24;3994766;87;21078;-90
2023/01/08 09:09:07;;;;;;;33.60;20.27;;;;;;;2.45;100.00;98732.05;3996353;87;21087;-90
2023/01/08 09:15:09;;;;;;;37.45;22.40;;;;;;;3.05;100.00;98737.00;3996505;87;21093;-90
2023/01/08 09:21:11;;;;;;;38.70;21.12;;;;;;;3.40;100.00;98744.23;3997127;87;21036;-89
2023/01/08 09:27:13;;;;;;;37.30;21.10;;;;;;;3.67;100.00;98721.95;3995670;87;21059;-90
2023/01/08 09:33:14;;;;;;;37.25;22.10;;;;;;;3.72;100.00;98716.33;3996354;87;20984;-91
2023/01/08 09:39:16;;;;;;;35.68;19.90;;;;;;;3.77;100.00;98706.64;3996372;87;20992;-90
2023/01/08 09:45:23;;;;;;;41.28;21.90;;;;;;;3.81;100.00;98707.53;3995512;86;21005;-90
2023/01/08 09:51:35;;;;;;;37.95;22.62;;;;;;;3.92;100.00;98693.77;4018088;86;21675;-91
2023/01/08 09:57:37;;;;;;;37.17;20.75;;;;;;;4.01;100.00;98675.52;4042469;86;21051;-90
2023/01/08 10:03:46;;;;;;;37.90;21.77;;;;;;;3.86;100.00;98676.97;4044084;86;21090;-91
2023/01/08 10:09:50;;;;;;;38.10;21.20;;;;;;;3.79;100.00;98665.91;4039119;86;21007;-91
2023/01/08 10:15:52;;;;;;;41.63;20.97;;;;;;;3.72;100.00;98650.80;4049242;86;21023;-90
2023/01/08 10:21:55;;;;;;;38.73;21.23;;;;;;;3.67;100.00;98641.55;3964577;88;20980;-90
2023/01/08 10:28:00;;;;;;;41.15;24.15;;;;;;;3.77;100.00;98637.05;3967035;88;21070;-91
2023/01/08 10:34:10;;;;;;;37.40;22.15;;;;;;;3.91;100.00;98623.95;3968025;88;21027;-91
2023/01/08 10:40:42;;;;;;;36.68;21.48;;;;;;;4.25;100.00;98605.83;3961890;87;21016;-91
2023/01/08 10:46:48;;;;;;;32.25;19.23;;;;;;;4.41;100.00;98599.92;4049136;86;21031;-90
2023/01/08 10:52:55;;;;;;;33.28;19.87;;;;;;;4.50;100.00;98587.01;4022141;86;21064;-90
2023/01/08 10:58:57;;;;;;;30.95;19.48;;;;;;;4.60;100.00;98574.89;4008687;87;22045;-92
2023/01/08 11:04:59;;;;;;;33.40;20.15;;;;;;;4.78;100.00;98556.60;4002454;87;20992;-90
2023/01/08 11:11:01;;;;;;;34.18;20.97;;;;;;;4.70;100.00;98556.75;4000065;87;21071;-90
2023/01/08 11:17:09;;;;;;;35.65;20.20;;;;;;;4.71;100.00;98550.20;4047865;86;21609;-91
2023/01/08 11:23:24;;;;;;;37.40;20.82;;;;;;;4.73;100.00;98542.50;4024822;86;21961;-91
2023/01/08 11:29:49;;;;;;;36.77;20.48;;;;;;;4.91;100.00;98529.41;3978299;87;21152;-92
2023/01/08 11:36:04;;;;;;;34.10;19.32;;;;;;;5.14;100.00;98518.96;3994379;86;21040;-91
2023/01/08 11:42:31;;;;;;;37.00;20.40;;;;;;;5.38;100.00;98507.13;3993281;87;21123;-91
2023/01/08 11:49:14;;;;;;;36.13;19.80;;;;;;;5.49;100.00;98511.67;3999049;86;21070;-92
2023/01/08 11:55:36;;;;;;;35.95;20.17;;;;;;;5.53;100.00;98503.62;4001984;87;21620;-91
2023/01/08 12:01:54;;;;;;;39.98;24.00;;;;;;;5.61;100.00;98492.55;3977625;87;21093;-91
2023/01/08 12:08:35;;;;;;;31.95;18.57;;;;;;;5.62;100.00;98490.63;3997834;86;21362;-90
2023/01/08 12:14:59;;;;;;;31.35;17.75;;;;;;;5.62;100.00;98485.97;4019383;86;21149;-90
2023/01/08 12:21:27;;;;;;;29.12;17.10;;;;;;;5.54;100.00;98474.76;4000025;86;21025;-90
2023/01/08 12:27:54;;;;;;;29.63;17.57;;;;;;;5.48;100.00;98459.09;4003290;86;21091;-90
2023/01/08 12:34:17;;;;;;;34.60;17.85;;;;;;;5.49;100.00;98451.95;4003666;86;21059;-89
2023/01/08 12:40:35;;;;;;;30.08;17.80;;;;;;;5.56;100.00;98444.54;4010788;86;21617;-90
2023/01/08 12:46:42;;;;;;;34.58;19.27;;;;;;;5.62;100.00;98439.81;4008480;86;21063;-88
2023/01/08 12:53:04;;;;;;;26.90;18.00;;;;;;;5.61;100.00;98442.88;4038850;86;21056;-90
2023/01/08 12:59:25;;;;;;;27.52;16.95;;;;;;;5.63;100.00;98435.97;4048402;86;21567;-90
2023/01/08 13:05:32;;;;;;;29.92;18.07;;;;;;;5.76;100.00;98426.53;4011883;87;21078;-89
2023/01/08 13:11:37;;;;;;;;;;;;;;;5.79;100.00;98418.26;4028115;87;21083;-90
2023/01/08 13:17:38;;;;;;;34.88;18.02;;;;;;;5.79;100.00;98425.05;4017156;87;20505;-88
2023/01/08 13:23:40;;;;;;;29.12;16.70;;;;;;;5.72;100.00;98427.59;3993868;87;21019;-89
2023/01/08 13:29:47;;;;;;;28.62;16.37;;;;;;;5.68;100.00;98422.12;4005728;87;21057;-88
2023/01/08 13:35:49;;;;;;;27.15;15.38;;;;;;;5.65;100.00;98435.05;4013902;87;21616;-89
2023/01/08 13:42:27;;;;;;;28.62;16.80;;;;;;;5.62;100.00;98426.82;4001199;87;21027;-90
2023/01/08 13:48:35;;;;;;;26.75;15.90;;;;;;;5.57;100.00;98436.04;4011031;87;21073;-89
2023/01/08 13:54:39;;;;;;;27.52;16.25;;;;;;;5.52;100.00;98438.23;4038858;86;21067;-89
2023/01/08 14:00:46;;;;;;;29.77;15.35;;;;;;;5.44;100.00;98453.58;3990314;88;21996;-89
2023/01/08 14:06:48;;;;;;;41.73;19.10;;;;;;;5.36;100.00;98453.76;3989202;87;21127;-89
2023/01/08 14:12:50;;;;;;;32.03;16.32;;;;;;;5.29;100.00;98442.76;3992108;88;21101;-89
2023/01/08 14:18:55;;;;;;;30.00;18.17;;;;;;;5.18;100.00;98452.02;3989970;87;22321;-89
2023/01/08 14:25:05;;;;;;;27.82;16.25;;;;;;;5.06;100.00;98451.33;3990744;88;21088;-89
2023/01/08 14:31:12;;;;;;;29.30;15.98;;;;;;;4.91;100.00;98462.95;3996660;87;21538;-90
2023/01/08 14:37:15;;;;;;;30.52;17.77;;;;;;;4.66;100.00;98459.63;3991223;87;21056;-89
2023/01/08 14:43:20;;;;;;;27.13;17.62;;;;;;;4.46;100.00;98456.59;3991016;88;21050;-91
2023/01/08 14:49:31;;;;;;;29.45;18.15;;;;;;;4.26;100.00;98449.48;3991106;87;21060;-89
2023/01/08 14:55:38;;;;;;;92.25;39.42;;;;;;;4.04;100.00;98452.16;3994447;87;21175;-91
2023/01/08 15:01:40;;;;;;;50.83;24.90;;;;;;;3.82;100.00;98445.91;3990878;88;21112;-90
2023/01/08 15:07:55;;;;;;;54.30;27.05;;;;;;;3.68;100.00;98448.80;3993706;88;21480;-90
2023/01/08 15:13:57;;;;;;;45.40;24.92;;;;;;;3.40;100.00;98452.02;3994301;88;21517;-90
2023/01/08 15:20:00;;;;;;;40.03;21.90;;;;;;;3.16;100.00;98450.12;3993493;87;21508;-90
2023/01/08 15:26:02;;;;;;;53.00;26.87;;;;;;;2.86;100.00;98448.77;3994686;88;21076;-91
2023/01/08 15:32:17;;;;;;;58.52;28.30;;;;;;;2.57;100.00;98441.64;3993516;88;21135;-91
2023/01/08 15:38:22;;;;;;;62.20;28.42;;;;;;;2.40;100.00;98450.50;3989274;88;21082;-90
2023/01/08 15:44:24;;;;;;;72.30;36.07;;;;;;;2.23;100.00;98450.12;3990355;87;21912;-90
2023/01/08 15:50:27;;;;;;;99.90;49.27;;;;;;;2.09;100.00;98451.53;3989194;87;21110;-90
2023/01/08 15:56:29;;;;;;;107.43;56.08;;;;;;;1.94;100.00;98430.02;4003308;87;21207;-90
2023/01/08 16:02:42;;;;;;;65.78;37.45;;;;;;;1.87;100.00;98424.91;4012215;87;21443;-89
2023/01/08 16:08:45;;;;;;;73.07;38.90;;;;;;;1.78;100.00;98407.45;4005479;86;21093;-90
2023/01/08 16:14:46;;;;;;;81.78;45.85;;;;;;;1.69;100.00;98405.95;3991608;87;21655;-90
2023/01/08 16:20:49;;;;;;;77.35;41.58;;;;;;;1.66;100.00;98390.42;4010096;87;21005;-90
2023/01/08 16:26:50;;;;;;;61.83;32.60;;;;;;;1.58;100.00;98390.73;4014698;87;21003;-89
2023/01/08 16:32:52;;;;;;;73.17;38.58;;;;;;;1.38;100.00;98392.86;4012001;86;21425;-89
2023/01/08 16:38:54;;;;;;;72.35;38.50;;;;;;;1.26;100.00;98396.30;4010315;87;21123;-90
2023/01/08 16:44:55;;;;;;;74.77;40.48;;;;;;;1.09;100.00;98405.05;4007204;87;21628;-88
2023/01/08 16:51:02;;;;;;;78.55;43.23;;;;;;;1.00;100.00;98384.88;4006455;86;21988;-89
2023/01/08 16:57:04;;;;;;;79.55;41.90;;;;;;;0.90;100.00;98383.94;3988885;87;21043;-89
2023/01/08 17:03:05;;;;;;;83.70;45.40;;;;;;;0.73;100.00;98396.70;3984167;87;21521;-90
2023/01/08 17:09:07;;;;;;;83.27;45.10;;;;;;;0.55;100.00;98395.22;3984057;87;21051;-89
2023/01/08 17:15:10;;;;;;;83.15;45.00;;;;;;;0.38;100.00;98396.61;3869404;84;10000341;-90
2023/01/08 17:21:13;;;;;;;99.60;52.08;;;;;;;0.33;100.00;98388.73;3986527;87;21419;-89
2023/01/08 17:27:15;;;;;;;98.75;51.77;;;;;;;0.26;100.00;98404.04;3983731;87;21111;-88
2023/01/08 17:33:16;;;;;;;106.12;55.20;;;;;;;0.20;100.00;98411.25;3985744;87;21079;-89
2023/01/08 17:39:17;;;;;;;111.22;58.38;;;;;;;0.17;100.00;98403.83;3983375;87;20991;-88
2023/01/08 17:45:19;;;;;;;105.95;53.30;;;;;;;0.13;100.00;98399.63;3988126;87;21131;-88
2023/01/08 17:51:20;;;;;;;135.05;61.85;;;;;;;0.10;100.00;98398.13;3993151;86;21544;-90
2023/01/08 17:57:22;;;;;;;123.45;63.35;;;;;;;0.06;100.00;98394.52;4037918;86;21040;-88
2023/01/08 18:03:24;;;;;;;87.17;46.58;;;;;;;0.03;100.00;98389.23;4036619;86;21064;-89
2023/01/08 18:09:26;;;;;;;95.70;50.20;;;;;;;-0.10;100.00;98386.97;4036943;87;21091;-89
2023/01/08 18:15:27;;;;;;;92.40;48.75;;;;;;;-0.14;100.00;98383.31;4035911;87;21077;-89
2023/01/08 18:21:29;;;;;;;92.30;47.60;;;;;;;-0.06;100.00;98397.31;4037850;86;21117;-88
2023/01/08 18:27:30;;;;;;;110.92;56.37;;;;;;;-0.02;100.00;98400.16;4034068;87;21005;-88
2023/01/08 18:33:33;;;;;;;128.32;65.50;;;;;;;-0.05;100.00;98397.53;4038496;87;21093;-88
2023/01/08 18:39:34;;;;;;;126.53;62.98;;;;;;;-0.10;100.00;98395.03;4034414;87;21036;-88
2023/01/08 18:45:37;;;;;;;202.47;98.60;;;;;;;-0.20;100.00;98390.52;4030351;86;21095;-87
2023/01/08 18:51:38;;;;;;;159.40;79.47;;;;;;;-0.21;100.00;98382.23;4024732;86;21137;-89
2023/01/08 19:10:11;;;;;;;139.00;71.50;;;;;;;0.11;100.00;98360.70;257712;1298;10002405;-87
2023/01/08 19:16:15;;;;;;;166.80;83.30;;;;;;;0.00;100.00;98351.58;268789;1284;22232;-88
2023/01/08 19:22:17;;;;;;;161.40;83.40;;;;;;;-0.09;100.00;98333.83;269624;1283;193529;-90
2023/01/08 19:28:20;;;;;;;165.80;80.70;;;;;;;-0.14;100.00;98324.16;271388;1281;22462;-87
2023/01/08 19:34:22;;;;;;;157.20;79.50;;;;;;;-0.19;100.00;98326.34;271082;1281;23680;-89
2023/01/08 19:40:24;;;;;;;144.50;75.30;;;;;;;-0.17;100.00;98325.42;272100;1277;22230;-87
2023/01/08 19:46:26;;;;;;;162.40;86.80;;;;;;;-0.11;100.00;98310.29;271359;1277;22607;-88
2023/01/08 19:52:28;;;;;;;195.00;99.90;;;;;;;-0.14;100.00;98292.40;271678;1277;22209;-88
2023/01/08 19:58:29;;;;;;;166.00;84.90;;;;;;;-0.19;100.00;98285.15;270300;1277;23498;-87
2023/01/08 20:04:35;;;;;;;208.20;106.90;;;;;;;-0.32;100.00;98297.51;269344;1277;22695;-88
2023/01/08 20:10:36;;;;;;;192.20;101.10;;;;;;;-0.32;100.00;98287.82;268728;1277;22555;-88
2023/01/08 20:16:38;;;;;;;194.30;99.20;;;;;;;-0.33;100.00;98281.23;270991;1277;22400;-88
2023/01/08 20:22:40;;;;;;;180.30;96.60;;;;;;;-0.38;100.00;98279.42;271353;1277;22581;-88
2023/01/08 20:28:43;;;;;;;183.00;97.80;;;;;;;-0.39;100.00;98270.53;269431;1277;23666;-89
2023/01/08 20:34:45;;;;;;;170.50;86.70;;;;;;;-0.37;100.00;98263.70;268877;1277;23811;-87
2023/01/08 20:40:50;;;;;;;181.10;93.50;;;;;;;-0.38;100.00;98263.73;270145;1277;22593;-88
2023/01/08 20:46:51;;;;;;;195.50;99.50;;;;;;;-0.33;100.00;98257.42;272079;1277;22854;-89
2023/01/08 20:52:56;;;;;;;196.10;101.80;;;;;;;-0.23;100.00;98251.71;271519;1277;23750;-88
2023/01/08 20:58:58;;;;;;;206.30;105.10;;;;;;;-0.12;100.00;98233.06;271224;1277;24345;-89
2023/01/08 21:04:59;;;;;;;167.70;82.80;;;;;;;0.02;100.00;98222.95;271464;1277;23330;-89
2023/01/08 21:11:03;;;;;;;183.50;92.40;;;;;;;0.16;100.00;98216.64;270092;1277;22210;-87
2023/01/08 21:17:06;;;;;;;211.30;105.30;;;;;;;0.20;100.00;98204.61;270975;1278;22494;-87
2023/01/08 21:23:09;;;;;;;178.80;97.10;;;;;;;0.24;100.00;98189.23;270443;1278;22814;-89
2023/01/08 21:29:11;;;;;;;179.30;90.30;;;;;;;0.35;100.00;98180.16;268421;1277;25391;-89
2023/01/08 21:35:14;;;;;;;178.80;92.80;;;;;;;0.43;100.00;98171.98;269914;1279;22563;-89
2023/01/08 21:47:41;;;;;;;145.20;76.00;;;;;;;0.50;100.00;98169.51;271400;1278;22219;-89
2023/01/08 21:53:43;;;;;;;143.10;74.80;;;;;;;0.59;100.00;98160.21;269635;1277;22490;-89
2023/01/08 21:59:48;;;;;;;162.10;84.50;;;;;;;0.66;100.00;98161.41;268406;1278;22923;-89
2023/01/08 22:06:01;;;;;;;149.20;81.30;;;;;;;0.70;100.00;98158.94;272023;1278;23949;-89
2023/01/08 22:12:03;;;;;;;148.80;81.60;;;;;;;0.78;100.00;98149.45;268355;1262;22540;-89
2023/01/08 22:18:05;;;;;;;153.00;82.10;;;;;;;0.87;100.00;98146.44;268292;1278;22726;-90
2023/01/08 22:24:06;;;;;;;134.60;73.90;;;;;;;0.88;100.00;98131.79;267771;1278;23903;-89
2023/01/08 22:30:09;;;;;;;130.90;69.90;;;;;;;0.88;100.00;98126.46;268020;1278;24236;-89
2023/01/08 22:36:12;;;;;;;140.80;77.00;;;;;;;0.93;100.00;98126.19;268239;1278;23523;-90
2023/01/08 22:42:15;;;;;;;139.30;73.90;;;;;;;0.94;100.00;98113.91;271372;1275;24286;-90
2023/01/08 22:48:17;;;;;;;147.10;77.00;;;;;;;0.99;100.00;98097.30;269255;1277;22543;-90
2023/01/08 22:54:19;;;;;;;147.90;79.20;;;;;;;1.02;100.00;98098.27;268828;1275;25400;-88
2023/01/08 23:00:21;;;;;;;123.60;62.90;;;;;;;1.04;100.00;98086.00;269456;1275;22777;-88
2023/01/08 23:06:24;;;;;;;134.00;71.20;;;;;;;1.11;100.00;98075.37;268839;1275;22570;-88
2023/01/08 23:12:26;;;;;;;140.00;77.90;;;;;;;1.12;100.00;98064.09;270027;1275;22221;-89
2023/01/08 23:18:28;;;;;;;125.60;70.00;;;;;;;1.15;100.00;98055.94;271574;1277;22647;-90
2023/01/08 23:24:30;;;;;;;123.70;63.70;;;;;;;1.18;100.00;98047.95;271332;1275;22727;-88
2023/01/08 23:30:32;;;;;;;123.90;66.30;;;;;;;1.18;100.00;98042.41;270255;1274;24454;-89
2023/01/08 23:36:34;;;;;;;101.70;49.30;;;;;;;1.20;100.00;98025.84;271751;1274;23656;-91
2023/01/08 23:42:36;;;;;;;123.80;62.40;;;;;;;1.28;100.00;98020.94;272595;1274;22231;-89
2023/01/08 23:48:38;;;;;;;120.00;59.90;;;;;;;1.31;100.00;98022.95;272537;1276;24356;-89
2023/01/08 23:54:40;;;;;;;129.40;61.00;;;;;;;1.28;100.00;98009.08;271635;1272;22413;-88
